Time;durP1;ratioP1;P1;durP2;ratioP2;P2;SDS_P1;SDS_P2;PMS_P1;PMS_P2;Temp;Humidity;BMP_temperature;BMP_pressure;BME280_temperature;BME280_humidity;BME280_pressure;Samples;Min_cycle;Max_cycle;Signal;HPM_P1;HPM_P2
2022/09/04 00:01:20;;;;;;;4.90;4.50;;;15.90;99.90;;;16.41;100.00;97908.06;5198474;28;20610;-75
2022/09/04 00:04:02;;;;;;;4.10;3.80;;;15.80;99.90;;;16.37;100.00;97913.97;5201830;28;20222;-74
2022/09/04 00:06:50;;;;;;;3.80;3.60;;;15.80;99.90;;;16.39;100.00;97905.41;5202948;28;20645;-75
2022/09/04 00:09:33;;;;;;;4.93;4.55;;;15.80;99.90;;;16.39;100.00;97904.53;5202799;28;20260;-75
2022/09/04 00:12:08;;;;;;;5.20;4.72;;;15.80;99.90;;;16.33;100.00;97912.94;5203243;28;20297;-75
2022/09/04 00:14:49;;;;;;;5.97;5.40;;;15.80;99.90;;;16.35;100.00;97905.28;5202338;28;20232;-75
2022/09/04 00:17:33;;;;;;;4.90;4.50;;;15.80;99.90;;;16.33;100.00;97912.06;5204191;28;20754;-74
2022/09/04 00:20:12;;;;;;;5.35;4.95;;;15.80;99.90;;;16.35;100.00;97906.16;5203511;28;20285;-74
2022/09/04 00:22:53;;;;;;;5.57;5.18;;;15.80;99.90;;;16.41;100.00;97905.47;5201013;28;20277;-73
2022/09/04 00:25:35;;;;;;;6.00;4.78;;;15.80;99.90;;;16.36;100.00;97907.03;5203882;28;20225;-75
2022/09/04 00:28:17;;;;;;;5.47;4.97;;;15.80;99.90;;;16.35;100.00;97908.72;5202648;28;20201;-75
2022/09/04 00:31:00;;;;;;;4.90;4.43;;;15.80;99.90;;;16.40;100.00;97916.63;5202524;28;20240;-74
2022/09/04 00:33:43;;;;;;;4.28;3.97;;;15.80;99.90;;;16.43;100.00;97919.31;5201305;28;20202;-74
2022/09/04 00:36:18;;;;;;;5.78;4.10;;;15.90;99.90;;;16.36;100.00;97914.75;5203882;28;20871;-75
2022/09/04 00:38:57;;;;;;;4.82;4.43;;;15.80;99.90;;;16.34;100.00;97918.97;5198739;28;20294;-75
2022/09/04 00:41:48;;;;;;;4.88;4.43;;;15.70;99.90;;;16.24;100.00;97922.06;5203350;28;20233;-75
2022/09/04 00:44:44;;;;;;;4.78;4.03;;;15.70;99.90;;;16.18;100.00;97923.59;5199872;28;20289;-74
2022/09/04 00:47:40;;;;;;;4.45;4.15;;;15.60;99.90;;;16.14;100.00;97921.75;5198295;28;20755;-74
2022/09/04 00:50:34;;;;;;;4.25;3.92;;;15.60;99.90;;;16.14;100.00;97920.88;5196891;28;20246;-74
2022/09/04 00:53:29;;;;;;;4.07;3.75;;;15.60;99.90;;;16.14;100.00;97937.22;5199777;28;20198;-75
2022/09/04 00:56:26;;;;;;;4.65;4.25;;;15.60;99.90;;;16.14;100.00;97934.66;5201201;28;20903;-75
2022/09/04 00:59:12;;;;;;;4.00;3.65;;;15.50;99.90;;;16.13;100.00;97937.16;5202546;28;20651;-75
2022/09/04 01:01:46;;;;;;;4.15;3.85;;;15.50;99.90;;;16.08;100.00;97937.00;5200150;28;20237;-74
2022/09/04 01:04:38;;;;;;;4.55;4.15;;;15.50;99.90;;;16.08;100.00;97934.44;5203448;28;20252;-75
2022/09/04 01:07:32;;;;;;;4.22;3.92;;;15.50;99.90;;;16.08;100.00;97933.53;5201186;28;20202;-75
2022/09/04 01:10:33;;;;;;;4.18;3.88;;;15.50;99.90;;;16.07;100.00;97932.66;5202110;28;20356;-75
2022/09/04 01:13:12;;;;;;;5.57;4.10;;;15.40;99.90;;;16.01;100.00;97940.16;5201169;28;20385;-75
2022/09/04 01:15:55;;;;;;;4.65;3.92;;;15.30;99.90;;;15.89;100.00;97934.56;5198828;28;20268;-75
2022/09/04 01:18:38;;;;;;;4.63;4.22;;;15.20;99.90;;;15.89;100.00;97940.59;5198133;28;20198;-76
2022/09/04 01:21:32;;;;;;;3.75;3.33;;;15.20;99.90;;;15.93;100.00;97946.72;5201049;28;20248;-75
2022/09/04 01:24:38;;;;;;;4.25;3.88;;;15.30;99.90;;;15.93;100.00;97957.03;5200751;28;20309;-75
2022/09/04 01:27:20;;;;;;;3.92;3.63;;;15.20;99.90;;;15.87;100.00;97951.66;5196162;28;20240;-75
2022/09/04 01:30:04;;;;;;;4.07;3.50;;;15.20;99.90;;;15.80;100.00;97957.41;5201910;28;20254;-75
2022/09/04 01:32:52;;;;;;;4.50;4.10;;;15.10;99.90;;;15.76;100.00;97959.84;5198837;28;20236;-74
2022/09/04 01:35:34;;;;;;;5.35;3.90;;;15.10;99.90;;;15.76;100.00;97952.13;5201855;28;20253;-75
2022/09/04 01:38:16;;;;;;;4.28;3.95;;;15.10;99.90;;;15.76;100.00;97959.84;5200101;28;20237;-75
2022/09/04 01:40:57;;;;;;;4.97;4.22;;;15.10;99.90;;;15.76;100.00;97961.56;5198077;28;20210;-76
2022/09/04 01:43:31;;;;;;;4.22;3.83;;;15.10;99.90;;;15.75;100.00;97957.22;5201837;28;20739;-75
2022/09/04 01:46:33;;;;;;;3.45;3.15;;;15.10;99.90;;;15.76;100.00;97959.84;5200587;28;20213;-75
2022/09/04 01:49:19;;;;;;;4.13;3.83;;;15.10;99.90;;;15.74;100.00;97966.66;5199911;28;20229;-75
2022/09/04 01:52:05;;;;;;;3.95;3.65;;;15.10;99.90;;;15.72;100.00;97967.44;5199540;28;20225;-75
2022/09/04 01:54:51;;;;;;;4.05;3.75;;;15.00;99.90;;;15.70;100.00;97959.63;5199656;28;20237;-75
2022/09/04 01:57:39;;;;;;;4.22;3.83;;;15.10;99.90;;;15.72;100.00;97964.84;5199480;28;20225;-75
2022/09/04 02:00:17;;;;;;;3.53;3.33;;;15.10;99.90;;;15.71;100.00;97971.72;5200504;28;20221;-75
2022/09/04 02:03:01;;;;;;;4.15;3.53;;;15.00;99.90;;;15.70;100.00;97972.50;5194298;28;20229;-75
2022/09/04 02:05:48;;;;;;;4.32;3.92;;;15.00;99.90;;;15.68;100.00;97970.69;5200506;28;20356;-75
2022/09/04 02:08:39;;;;;;;5.30;3.78;;;15.00;99.90;;;15.68;100.00;97970.69;5197346;28;20281;-75
2022/09/04 02:11:17;;;;;;;3.55;3.30;;;15.00;99.90;;;15.66;100.00;97977.47;5199600;28;20308;-75
2022/09/04 02:14:09;;;;;;;4.85;3.20;;;15.00;99.90;;;15.59;100.00;97984.06;5201892;28;20232;-74
2022/09/04 02:17:01;;;;;;;3.28;2.95;;;14.90;99.90;;;15.58;100.00;97984.88;5199782;28;20597;-75
2022/09/04 02:19:45;;;;;;;3.03;2.83;;;14.80;99.90;;;15.43;100.00;97986.88;5199399;28;20210;-76
2022/09/04 02:22:30;;;;;;;3.50;3.20;;;14.70;99.90;;;15.40;100.00;97979.03;5198043;28;20229;-75
2022/09/04 02:25:14;;;;;;;3.50;3.28;;;14.70;99.90;;;15.41;100.00;97986.78;5200063;28;20275;-75
2022/09/04 02:28:01;;;;;;;4.00;3.70;;;14.70;99.90;;;15.42;100.00;97988.53;5199989;28;20639;-75
2022/09/04 02:30:43;;;;;;;8.57;4.35;;;14.70;99.90;;;15.35;100.00;97989.13;5200449;28;20283;-76
2022/09/04 02:33:28;;;;;;;3.50;3.28;;;14.60;99.90;;;15.33;100.00;97990.75;5201528;28;20204;-75
2022/09/04 02:36:09;;;;;;;59.55;6.38;;;14.60;99.90;;;15.32;100.00;97982.16;5196777;28;20308;-75
2022/09/04 02:38:53;;;;;;;8.43;3.95;;;14.70;99.90;;;15.36;100.00;97987.44;5197885;28;20221;-75
2022/09/04 02:41:38;;;;;;;30.02;5.28;;;14.60;99.90;;;15.27;100.00;97986.22;5200564;28;20681;-75
2022/09/04 02:44:29;;;;;;;5.03;4.22;;;14.60;99.90;;;15.28;100.00;97988.00;5199345;28;20248;-76
2022/09/04 02:47:13;;;;;;;6.72;4.63;;;14.60;99.90;;;15.29;100.00;97988.88;5199235;28;20256;-74
2022/09/04 02:49:59;;;;;;;4.32;3.95;;;14.60;99.90;;;15.33;100.00;97990.75;5197609;28;20206;-75
2022/09/04 02:52:50;;;;;;;4.43;4.10;;;14.70;99.90;;;15.37;100.00;97999.50;5197916;28;20293;-74
2022/09/04 02:55:47;;;;;;;55.65;6.03;;;14.70;99.90;;;15.37;100.00;98002.94;5200721;28;20261;-75
2022/09/04 02:58:38;;;;;;;7.00;4.22;;;14.60;99.90;;;15.33;100.00;97996.78;5199252;28;20256;-76
2022/09/04 03:01:19;;;;;;;37.05;5.88;;;14.60;99.90;;;15.32;100.00;97999.31;5200715;28;20198;-75
2022/09/04 03:04:00;;;;;;;27.83;5.18;;;14.60;99.90;;;15.29;100.00;98000.06;5198797;28;20234;-75
2022/09/04 03:06:52;;;;;;;48.05;6.18;;;14.60;99.90;;;15.25;100.00;98000.75;5201789;28;20257;-75
2022/09/04 03:09:32;;;;;;;14.35;4.32;;;14.60;99.90;;;15.28;100.00;98003.47;5196870;28;20927;-76
2022/09/04 03:12:26;;;;;;;4.15;3.75;;;14.50;99.90;;;15.21;100.00;98004.00;5200479;28;20308;-75
2022/09/04 03:15:09;;;;;;;4.68;3.92;;;14.50;99.90;;;15.25;100.00;98005.00;5191670;28;20324;-75
2022/09/04 03:17:54;;;;;;;23.85;4.57;;;14.50;99.90;;;15.26;100.00;98007.66;5199862;28;20272;-75
2022/09/04 03:20:30;;;;;;;4.80;4.00;;;14.60;99.90;;;15.21;100.00;98013.44;5194861;28;20918;-75
2022/09/04 03:23:13;;;;;;;6.78;4.35;;;14.50;99.90;;;15.22;100.00;98005.78;5198296;28;20707;-75
2022/09/04 03:26:13;;;;;;;4.22;3.90;;;14.50;99.90;;;15.24;100.00;98003.25;5199523;28;20639;-75
2022/09/04 03:29:01;;;;;;;7.03;4.22;;;14.50;99.90;;;15.25;100.00;98005.00;5198965;28;20638;-75
2022/09/04 03:31:41;;;;;;;12.70;4.30;;;14.50;99.90;;;15.20;100.00;97999.69;5196064;28;20320;-75
2022/09/04 03:34:33;;;;;;;4.57;4.00;;;14.50;99.90;;;15.11;100.00;98001.88;5199413;28;20198;-75
2022/09/04 03:37:32;;;;;;;4.22;3.83;;;14.40;99.90;;;15.12;100.00;98003.63;5200192;28;20245;-75
2022/09/04 03:40:19;;;;;;;3.90;3.50;;;14.40;99.90;;;15.14;100.00;98003.69;5199291;28;20232;-75
2022/09/04 03:43:10;;;;;;;4.50;4.10;;;14.30;99.90;;;15.12;100.00;98005.34;5196288;28;20256;-75
2022/09/04 03:45:53;;;;;;;4.95;4.25;;;14.30;99.90;;;15.08;100.00;98012.06;5197085;28;20237;-74
2022/09/04 03:48:52;;;;;;;5.38;4.38;;;14.30;99.90;;;15.06;100.00;98004.25;5199317;28;20276;-74
2022/09/04 03:51:37;;;;;;;3.83;3.53;;;14.30;99.90;;;15.04;100.00;98015.31;5198897;28;20249;-74
2022/09/04 03:54:27;;;;;;;4.50;4.10;;;14.20;99.90;;;15.03;100.00;98014.44;5198516;28;20401;-74
2022/09/04 03:57:20;;;;;;;4.40;4.03;;;14.20;99.90;;;15.02;100.00;98019.50;5200175;28;20710;-75
2022/09/04 04:00:07;;;;;;;4.10;3.80;;;14.20;99.90;;;15.01;100.00;98021.19;5196483;28;20230;-75
2022/09/04 04:03:04;;;;;;;4.05;3.75;;;14.20;99.90;;;14.98;100.00;98021.06;5196494;28;20193;-74
2022/09/04 04:05:46;;;;;;;4.53;4.20;;;14.30;99.90;;;14.97;100.00;98028.75;5198303;28;20217;-74
2022/09/04 04:08:39;;;;;;;4.93;4.53;;;14.20;99.90;;;14.97;100.00;98034.78;5199288;28;20208;-74
2022/09/04 04:11:33;;;;;;;10.55;5.25;;;14.20;99.90;;;14.81;100.00;98033.22;5194487;28;20307;-74
2022/09/04 04:14:58;;;;;;;5.30;4.80;;;14.10;99.90;;;14.79;100.00;98044.25;5199531;28;20692;-74
2022/09/04 04:17:58;;;;;;;5.75;4.10;;;14.10;99.90;;;14.73;100.00;98042.28;5196605;28;20283;-75
2022/09/04 04:20:41;;;;;;;5.00;4.60;;;14.00;99.90;;;14.69;100.00;98045.56;5195840;28;20198;-75
2022/09/04 04:23:46;;;;;;;5.00;4.50;;;14.00;99.90;;;14.71;100.00;98051.66;5195579;28;20205;-75
2022/09/04 04:26:30;;;;;;;4.40;4.10;;;14.00;99.90;;;14.72;100.00;98053.41;5199620;28;20697;-74
2022/09/04 04:29:50;;;;;;;4.32;3.97;;;14.00;99.90;;;14.71;100.00;98061.97;5195051;28;20290;-74
2022/09/04 04:33:00;;;;;;;4.65;4.25;;;14.10;99.90;;;14.71;100.00;98058.47;5199987;28;20221;-74
2022/09/04 04:35:44;;;;;;;4.50;4.20;;;14.00;99.90;;;14.75;100.00;98056.13;5198988;28;20313;-75
2022/09/04 04:38:43;;;;;;;4.00;3.38;;;14.00;99.90;;;14.73;100.00;98056.84;5203210;28;20244;-73
2022/09/04 04:41:29;;;;;;;3.92;3.67;;;14.00;99.90;;;14.75;100.00;98061.25;5201034;28;20218;-75
2022/09/04 04:44:15;;;;;;;7.65;3.90;;;14.00;99.90;;;14.67;100.00;98067.75;5201679;28;20214;-74
2022/09/04 04:47:06;;;;;;;3.60;3.30;;;13.90;99.90;;;14.70;100.00;98070.47;5202197;28;20632;-74
2022/09/04 04:49:57;;;;;;;3.75;3.05;;;13.90;99.90;;;14.70;100.00;98085.91;5201602;28;20316;-75
2022/09/04 04:52:48;;;;;;;3.13;2.92;;;14.00;99.90;;;14.69;100.00;98081.59;5199281;28;20256;-75
2022/09/04 04:55:38;;;;;;;3.13;2.92;;;14.00;99.90;;;14.72;100.00;98086.88;5199306;28;20846;-75
2022/09/04 04:58:45;;;;;;;3.60;3.30;;;14.00;99.90;;;14.68;100.00;98090.13;5202295;28;20321;-75
2022/09/04 05:01:35;;;;;;;4.43;4.10;;;14.00;99.90;;;14.66;100.00;98084.03;5178271;28;20189;-74
2022/09/04 05:04:20;;;;;;;3.70;3.50;;;13.90;99.90;;;14.63;100.00;98087.34;5200655;28;20208;-75
2022/09/04 05:07:01;;;;;;;3.40;3.20;;;13.90;99.90;;;14.67;100.00;98088.34;5201863;28;20249;-74
2022/09/04 05:09:41;;;;;;;4.13;3.83;;;13.90;99.90;;;14.70;100.00;98091.06;5200792;28;20236;-74
2022/09/04 05:12:25;;;;;;;4.03;3.70;;;14.00;99.90;;;14.74;100.00;98103.25;5201308;28;20222;-75
2022/09/04 05:15:05;;;;;;;4.03;3.72;;;14.00;99.90;;;14.77;100.00;98111.13;5199233;28;20349;-75
2022/09/04 05:17:48;;;;;;;4.20;3.90;;;14.00;99.90;;;14.82;100.00;98107.06;5198021;28;20248;-75
2022/09/04 05:20:36;;;;;;;7.60;4.28;;;14.10;99.90;;;14.88;100.00;98103.88;5202307;28;20847;-75
2022/09/04 05:23:24;;;;;;;3.92;3.63;;;14.10;99.90;;;14.87;100.00;98115.84;5200677;28;20218;-74
2022/09/04 05:26:12;;;;;;;3.97;3.67;;;14.10;99.90;;;14.90;100.00;98124.50;5199805;28;20225;-74
2022/09/04 05:28:56;;;;;;;16.55;4.85;;;14.20;99.90;;;14.91;100.00;98121.13;5200322;28;20324;-76
2022/09/04 05:31:39;;;;;;;4.60;4.00;;;14.20;99.90;;;14.90;100.00;98127.09;5196391;28;20317;-75
2022/09/04 05:34:29;;;;;;;4.05;3.65;;;14.20;99.90;;;14.96;100.00;98128.22;5200394;28;20246;-74
2022/09/04 05:37:13;;;;;;;11.55;3.30;;;14.20;99.90;;;14.91;100.00;98136.56;5197639;28;20257;-75
2022/09/04 05:40:00;;;;;;;7.43;4.63;;;14.10;99.90;;;14.87;100.00;98133.84;5199571;28;20719;-75
2022/09/04 05:43:02;;;;;;;12.57;5.05;;;14.10;99.90;;;14.93;100.00;98146.13;5201137;28;20205;-75
2022/09/04 05:45:50;;;;;;;11.45;5.38;;;14.10;99.90;;;14.94;100.00;98147.03;5197327;28;20544;-75
2022/09/04 05:48:30;;;;;;;6.15;5.20;;;14.10;99.90;;;14.99;100.00;98158.38;5201825;28;20297;-75
2022/09/04 05:52:02;;;;;;;5.18;4.65;;;14.20;99.90;;;15.03;100.00;98157.72;5201109;28;20233;-74
2022/09/04 05:55:00;;;;;;;38.00;9.13;;;14.20;99.90;;;15.13;100.00;98159.88;5156920;28;20298;-75
2022/09/04 05:57:51;;;;;;;13.68;7.45;;;14.20;99.90;;;15.18;100.00;98163.53;5198539;28;20233;-75
2022/09/04 06:00:28;;;;;;;9.05;7.10;;;14.30;99.90;;;15.25;100.00;98169.81;5200060;28;20201;-75
2022/09/04 06:03:32;;;;;;;5.90;5.30;;;14.40;99.90;;;15.36;100.00;98162.56;5198592;28;20225;-76
2022/09/04 06:06:19;;;;;;;4.25;3.75;;;14.50;99.90;;;15.39;100.00;98167.84;5199215;28;20264;-75
2022/09/04 06:09:50;;;;;;;3.95;3.65;;;14.60;99.90;;;15.58;100.00;98169.53;5200701;28;20306;-76
2022/09/04 06:12:56;;;;;;;5.50;3.85;;;14.70;99.90;;;15.76;100.00;98168.63;5191873;28;20799;-75
2022/09/04 06:15:46;;;;;;;5.35;3.50;;;14.90;99.90;;;15.94;100.00;98167.66;5200406;28;20249;-75
2022/09/04 06:18:46;;;;;;;4.68;4.03;;;15.00;99.90;;;15.96;100.00;98165.97;5194838;28;20699;-75
2022/09/04 06:22:01;;;;;;;6.47;4.70;;;15.00;99.90;;;16.23;100.00;98173.09;5196108;28;20348;-75
2022/09/04 06:25:13;;;;;;;6.40;4.80;;;15.20;99.90;;;16.37;98.44;98171.94;5196891;28;20737;-75
2022/09/04 06:28:21;;;;;;;5.18;4.68;;;15.30;99.90;;;16.45;98.73;98180.84;5194102;28;20599;-75
2022/09/04 06:31:06;;;;;;;8.75;7.60;;;15.50;99.90;;;16.78;97.65;98180.41;5174069;28;20657;-76
2022/09/04 06:33:56;;;;;;;8.77;7.88;;;15.70;99.90;;;16.96;94.66;98175.94;5198912;28;20226;-76
2022/09/04 06:36:56;;;;;;;6.40;5.75;;;15.80;99.90;;;17.18;93.49;98187.06;5197986;28;20671;-76
2022/09/04 06:39:50;;;;;;;6.82;6.13;;;16.10;99.90;;;17.55;95.09;98192.72;5199547;28;20241;-77
2022/09/04 06:42:37;;;;;;;5.57;5.07;;;16.40;99.90;;;17.79;91.63;98186.66;5197577;28;20202;-76
2022/09/04 06:45:22;;;;;;;4.75;4.13;;;16.50;99.90;;;17.65;91.33;98190.44;5196437;28;20304;-76
2022/09/04 06:48:09;;;;;;;3.95;3.65;;;16.40;99.90;;;18.08;90.16;98190.19;5197489;28;20219;-76
2022/09/04 06:50:55;;;;;;;6.65;5.97;;;16.70;99.90;;;18.47;90.14;98197.50;5190965;28;20289;-75
2022/09/04 06:53:41;;;;;;;15.50;12.02;;;17.10;99.90;;;19.09;87.08;98195.09;5200435;28;20796;-76
2022/09/04 06:56:38;;;;;;;15.95;13.45;;;17.70;99.90;;;19.51;85.29;98186.72;5194770;28;20279;-76
2022/09/04 07:00:01;;;;;;;6.75;6.22;;;18.00;99.90;;;19.94;83.23;98195.66;5193883;28;20932;-76
2022/09/04 07:03:13;;;;;;;10.18;9.27;;;18.40;99.90;;;20.52;80.77;98197.09;5192377;28;20206;-74
2022/09/04 07:05:56;;;;;;;8.70;8.02;;;18.80;99.90;;;21.11;80.90;98201.88;5198752;28;20276;-77
2022/09/04 07:08:47;;;;;;;12.63;11.63;;;19.30;99.90;;;21.51;75.84;98206.19;5198745;28;20267;-77
2022/09/04 07:11:37;;;;;;;7.03;6.53;;;19.50;99.90;;;21.78;72.66;98207.56;5196674;28;20651;-76
2022/09/04 07:14:47;;;;;;;6.57;6.10;;;19.70;99.90;;;22.35;71.72;98211.16;5197639;28;20352;-77
2022/09/04 07:17:31;;;;;;;7.28;6.88;;;19.80;99.90;;;22.35;69.78;98213.75;5197069;28;20209;-76
2022/09/04 07:20:20;;;;;;;7.50;7.10;;;20.10;99.90;;;22.92;68.74;98223.31;5194387;28;20229;-76
2022/09/04 07:23:16;;;;;;;9.65;9.00;;;20.30;99.90;;;23.22;67.63;98225.50;5196144;28;20461;-75
2022/09/04 07:26:02;;;;;;;8.88;8.32;;;20.50;99.90;;;23.12;68.70;98221.00;5198936;28;20309;-78
2022/09/04 07:29:08;;;;;;;7.90;7.40;;;20.70;99.90;;;23.00;69.54;98231.28;5198214;28;20267;-75
2022/09/04 07:31:48;;;;;;;7.30;6.80;;;21.00;99.90;;;22.91;69.60;98227.66;5199751;28;20256;-77
2022/09/04 07:34:29;;;;;;;7.60;7.10;;;21.10;99.90;;;22.88;69.93;98225.00;5197483;28;20304;-76
2022/09/04 07:37:14;;;;;;;6.70;6.15;;;21.20;99.90;;;23.15;69.77;98228.88;5200997;28;20641;-76
2022/09/04 07:39:59;;;;;;;7.22;6.72;;;21.50;99.90;;;23.25;68.54;98233.34;5199565;28;20241;-78
2022/09/04 07:42:43;;;;;;;5.88;5.47;;;21.70;99.90;;;23.24;69.39;98225.53;5199147;28;20204;-76
2022/09/04 07:45:29;;;;;;;6.65;6.20;;;21.80;99.90;;;23.31;68.47;98222.13;5197243;28;20249;-77
2022/09/04 07:48:17;;;;;;;5.50;5.10;;;21.90;99.90;;;23.45;68.47;98232.72;5196893;28;20205;-76
2022/09/04 07:51:03;;;;;;;5.18;4.75;;;22.00;99.90;;;23.52;68.55;98235.44;5199827;28;20640;-77
2022/09/04 07:54:12;;;;;;;5.47;4.97;;;22.30;99.90;;;23.79;67.77;98242.72;5198267;28;20233;-76
2022/09/04 07:57:29;;;;;;;5.18;4.78;;;22.40;99.90;;;23.86;67.24;98248.88;5181358;28;20717;-77
2022/09/04 08:00:07;;;;;;;4.93;4.53;;;22.60;99.90;;;23.79;67.49;98245.34;5198901;28;20736;-76
2022/09/04 08:03:23;;;;;;;4.47;4.18;;;22.50;99.90;;;24.02;66.71;98244.69;5198882;28;20280;-76
2022/09/04 08:06:06;;;;;;;4.22;3.83;;;22.80;99.90;;;24.08;66.70;98244.75;5195114;28;20357;-78
2022/09/04 08:09:25;;;;;;;4.05;3.83;;;22.90;99.90;;;24.28;66.08;98248.41;5205115;28;20229;-77
2022/09/04 08:12:37;;;;;;;4.28;3.90;;;23.30;99.90;;;24.36;66.04;98245.00;5195637;28;20202;-74
2022/09/04 08:15:18;;;;;;;4.00;3.70;;;23.30;99.90;;;24.64;65.13;98253.97;5201460;28;20257;-78
2022/09/04 08:18:17;;;;;;;4.22;3.88;;;23.70;99.90;;;24.63;65.02;98247.84;5200557;28;20555;-76
2022/09/04 08:21:15;;;;;;;3.80;3.50;;;23.70;99.90;;;24.83;63.62;98262.81;5197401;28;20209;-76
2022/09/04 08:24:24;;;;;;;3.72;3.47;;;23.90;99.90;;;25.00;62.63;98263.78;5199233;28;20669;-76
2022/09/04 08:27:10;;;;;;;3.38;3.05;;;24.10;99.90;;;25.03;63.18;98270.78;5198081;28;20257;-77
2022/09/04 08:30:02;;;;;;;3.75;3.45;;;24.20;99.90;;;25.09;62.09;98263.84;5199352;28;20236;-77
2022/09/04 08:33:19;;;;;;;3.20;3.00;;;24.10;99.90;;;25.23;62.28;98268.31;5199298;28;20193;-77
2022/09/04 08:35:59;;;;;;;3.53;3.30;;;24.30;99.90;;;25.31;62.46;98271.84;5196295;28;20334;-76
2022/09/04 08:38:55;;;;;;;3.33;3.03;;;24.50;99.90;;;25.44;61.04;98268.44;5200898;28;20201;-74
2022/09/04 08:42:27;;;;;;;3.95;3.20;;;24.60;99.90;;;25.66;62.12;98272.00;5200300;28;20205;-78
2022/09/04 08:45:50;;;;;;;3.13;2.92;;;24.90;99.90;;;25.82;59.28;98272.94;5198508;28;20279;-77
2022/09/04 08:49:13;;;;;;;3.45;3.15;;;25.10;99.90;;;25.99;59.51;98273.03;5200640;28;20210;-76
2022/09/04 08:52:53;;;;;;;3.58;3.28;;;25.20;99.90;;;26.06;59.19;98273.00;5198301;28;20323;-77
2022/09/04 08:55:47;;;;;;;3.10;2.90;;;25.20;99.90;;;26.15;59.12;98279.16;5175887;28;20233;-77
2022/09/04 08:59:10;;;;;;;3.30;3.10;;;25.40;99.90;;;26.06;58.81;98280.00;5198509;28;20411;-76
2022/09/04 09:02:05;;;;;;;3.40;3.10;;;25.30;99.90;;;26.04;58.29;98277.41;5190367;28;20668;-76
2022/09/04 09:05:40;;;;;;;2.97;2.78;;;25.30;99.90;;;26.17;59.31;98280.03;5197272;28;20222;-76
2022/09/04 09:09:16;;;;;;;3.40;3.10;;;25.40;99.90;;;26.28;58.82;98280.94;5194667;28;20293;-78
2022/09/04 09:12:44;;;;;;;4.00;3.70;;;25.80;99.90;;;26.33;58.04;98280.94;5198900;28;20198;-76
2022/09/04 09:16:06;;;;;;;3.47;3.17;;;25.50;99.90;;;26.19;57.84;98273.06;5132910;28;20243;-76
2022/09/04 09:19:19;;;;;;;3.25;2.97;;;25.40;99.90;;;26.11;59.64;98277.41;5200162;28;20237;-76
2022/09/04 09:22:13;;;;;;;2.80;2.70;;;25.20;99.90;;;26.22;57.80;98270.44;5189914;28;20244;-76
2022/09/04 09:25:20;;;;;;;2.65;2.45;;;25.40;99.90;;;26.41;57.74;98269.59;5197808;28;20623;-77
2022/09/04 09:28:45;;;;;;;2.63;2.53;;;25.70;99.90;;;26.52;55.95;98265.22;5195790;28;20237;-76
2022/09/04 09:32:16;;;;;;;2.58;2.38;;;25.80;99.90;;;26.83;56.93;98273.06;5195726;28;20911;-76
2022/09/04 09:35:50;;;;;;;2.25;2.15;;;26.20;99.90;;;27.25;55.07;98279.16;5196975;28;20715;-77
2022/09/04 09:38:57;;;;;;;2.78;2.58;;;26.70;99.00;;;27.08;54.54;98278.31;5197484;28;20288;-78
2022/09/04 09:42:16;;;;;;;2.72;2.60;;;26.30;99.10;;;27.05;55.39;98271.31;5196388;28;20284;-76
2022/09/04 09:45:15;;;;;;;2.53;2.33;;;26.30;99.90;;;27.06;55.12;98278.28;5194559;28;20225;-76
2022/09/04 09:48:33;;;;;;;2.25;2.15;;;26.20;99.20;;;27.23;53.25;98269.53;5195574;28;20198;-76
2022/09/04 09:51:46;;;;;;;2.00;1.90;;;26.30;98.10;;;27.38;51.60;98267.72;5198519;28;20237;-77
2022/09/04 09:55:25;;;;;;;2.42;2.22;;;26.50;96.70;;;27.15;52.22;98267.78;5197601;28;20316;-77
2022/09/04 09:58:43;;;;;;;2.50;2.30;;;26.40;96.90;;;27.00;53.08;98272.19;5150453;28;20836;-77
2022/09/04 10:01:50;;;;;;;2.28;2.08;;;26.20;97.00;;;26.95;54.00;98267.81;5200156;28;20205;-76
2022/09/04 10:04:53;;;;;;;2.28;1.63;;;26.10;97.90;;;26.83;52.33;98265.22;5197108;28;20260;-77
2022/09/04 10:08:09;;;;;;;2.10;1.90;;;26.00;96.60;;;26.82;52.84;98263.47;5198125;28;20607;-76
2022/09/04 10:11:43;;;;;;;2.10;1.90;;;25.90;97.20;;;26.85;53.78;98263.47;5167184;28;20311;-77
2022/09/04 10:14:50;;;;;;;1.90;1.80;;;26.20;97.30;;;26.91;52.72;98258.19;5184115;28;20326;-77
2022/09/04 10:18:01;;;;;;;2.35;2.25;;;26.30;96.50;;;26.85;53.05;98255.59;5200890;28;20224;-76
2022/09/04 10:21:10;;;;;;;2.03;1.92;;;26.30;96.90;;;26.64;53.35;98255.59;5199708;28;20664;-76
2022/09/04 10:24:38;;;;;;;2.30;2.17;;;25.80;97.00;;;26.37;53.89;98245.97;5199327;28;20225;-78
2022/09/04 10:27:51;;;;;;;1.95;1.75;;;25.60;97.30;;;26.41;52.48;98247.72;5176987;28;20236;-78
2022/09/04 10:30:34;;;;;;;1.98;1.77;;;25.70;96.70;;;26.48;53.00;98245.09;5187412;28;20647;-80
2022/09/04 10:33:26;;;;;;;2.22;1.80;;;25.70;96.60;;;26.50;53.39;98246.00;5202752;28;20678;-80
2022/09/04 10:36:14;;;;;;;1.80;1.70;;;25.80;97.00;;;26.58;53.57;98245.13;5198187;28;20221;-79
2022/09/04 10:42:20;;;;;;;1.90;1.80;;;25.90;96.80;;;26.47;51.74;98239.88;5198378;28;20251;-78
2022/09/04 10:45:14;;;;;;;2.03;1.88;;;25.60;95.60;;;26.48;52.36;98239.84;5198969;28;20302;-78
2022/09/04 10:48:25;;;;;;;2.20;2.10;;;25.80;96.10;;;26.34;52.36;98245.97;5202840;28;20293;-78
2022/09/04 10:51:24;;;;;;;2.05;1.95;;;25.70;95.90;;;26.24;52.75;98252.94;5197020;28;20248;-79
2022/09/04 10:54:34;;;;;;;2.33;2.13;;;25.60;96.00;;;26.33;51.91;98242.50;5199838;28;20233;-81
2022/09/04 10:57:29;;;;;;;2.00;1.90;;;25.60;95.80;;;26.52;51.99;98243.38;5199985;28;20229;-79
2022/09/04 11:00:07;;;;;;;2.13;1.92;;;25.90;95.80;;;26.49;51.73;98243.34;5203022;28;20221;-77
2022/09/04 11:03:16;;;;;;;1.92;1.83;;;25.80;95.30;;;26.43;52.16;98248.59;5202079;28;20648;-79
2022/09/04 11:06:37;;;;;;;2.00;1.90;;;25.80;95.60;;;26.44;51.46;98243.38;5199750;28;20213;-79
2022/09/04 11:09:42;;;;;;;2.45;1.70;;;25.80;95.40;;;26.52;50.94;98251.25;5198471;28;20261;-78
2022/09/04 11:12:51;;;;;;;1.95;1.85;;;26.00;95.00;;;26.28;50.42;98239.84;5198013;28;20232;-79
2022/09/04 11:15:46;;;;;;;2.15;1.88;;;25.60;94.20;;;26.22;51.31;98237.22;5200016;28;20302;-78
2022/09/04 11:18:58;;;;;;;1.80;1.70;;;25.60;94.90;;;26.34;49.77;98232.88;5199631;28;20202;-79
2022/09/04 11:22:33;;;;;;;1.92;1.83;;;25.70;94.20;;;26.34;49.97;98233.75;5199291;28;20201;-79
2022/09/04 11:26:14;;;;;;;1.50;1.40;;;25.80;94.30;;;26.42;49.49;98241.63;5199624;28;20213;-79
2022/09/04 11:29:12;;;;;;;1.42;1.40;;;25.70;94.00;;;26.34;49.32;98231.13;5166663;28;20251;-79
2022/09/04 11:32:20;;;;;;;1.23;1.23;;;25.80;93.10;;;26.40;46.39;98228.50;5203666;28;20641;-79
2022/09/04 11:35:40;;;;;;;1.50;1.40;;;25.70;91.40;;;26.28;47.26;98228.50;5201867;28;20294;-78
2022/09/04 11:38:19;;;;;;;1.85;1.65;;;25.70;91.80;;;26.33;47.00;98232.00;5201080;28;20648;-79
2022/09/04 11:41:42;;;;;;;1.60;1.50;;;25.70;91.70;;;26.37;47.53;98228.50;5197638;28;20285;-78
2022/09/04 11:44:38;;;;;;;1.88;1.50;;;25.60;92.80;;;26.28;47.60;98223.25;5196815;28;20660;-78
2022/09/04 11:47:51;;;;;;;1.50;1.40;;;25.60;92.50;;;26.44;48.24;98217.16;5197658;28;20201;-78
2022/09/04 11:50:42;;;;;;;1.75;1.65;;;25.80;92.70;;;26.46;49.19;98219.75;5198807;28;20205;-79
2022/09/04 11:53:40;;;;;;;1.80;1.70;;;25.80;93.30;;;26.32;47.92;98211.88;5196053;28;20236;-79
2022/09/04 11:56:50;;;;;;;1.80;1.70;;;25.70;92.50;;;26.21;49.79;98222.38;5202217;28;20329;-78
2022/09/04 11:59:55;;;;;;;1.95;1.70;;;25.60;93.30;;;26.17;48.95;98210.13;5199457;28;20288;-80
2022/09/04 12:03:28;;;;;;;1.20;1.20;;;25.50;93.00;;;26.40;48.86;98219.75;5199960;28;20232;-79
2022/09/04 12:06:25;;;;;;;1.73;1.50;;;25.60;93.00;;;26.53;48.06;98224.16;5184001;28;20213;-79
2022/09/04 12:09:56;;;;;;;1.55;1.45;;;25.80;92.50;;;26.36;47.89;98224.13;5199124;28;20273;-79
2022/09/04 12:12:56;;;;;;;1.40;1.30;;;25.60;92.50;;;26.38;45.35;98225.00;5196132;28;20236;-80
2022/09/04 12:15:58;;;;;;;1.42;1.33;;;25.80;90.80;;;26.43;45.55;98227.63;5200874;28;20275;-77
2022/09/04 12:19:15;;;;;;;1.55;1.45;;;25.70;90.80;;;26.41;44.28;98230.25;5198750;28;20209;-78